createdAt,value
2018-07-17T14:19:20.839Z,4648.00
2018-07-17T14:20:21.308Z,4300.00
2018-07-17T14:22:14.619Z,4412.00
2018-07-17T14:23:14.305Z,4776.00
2018-07-17T14:25:06.941Z,4520.00
2018-07-17T14:26:06.624Z,4260.00
2018-07-17T14:28:00.400Z,4672.00
2018-07-17T14:29:00.345Z,4736.00
2018-07-17T14:30:53.827Z,4936.00
2018-07-17T14:31:53.400Z,5296.00
2018-07-17T14:33:46.602Z,5340.00
2018-07-17T14:34:46.308Z,4940.00
2018-07-17T14:36:39.919Z,4920.00
2018-07-17T14:37:39.663Z,5328.00
2018-07-17T14:39:33.462Z,4800.00
2018-07-17T14:40:33.083Z,4400.00
2018-07-17T14:42:27.091Z,4460.00
2018-07-17T14:43:26.493Z,4840.00
2018-07-17T14:45:20.252Z,4540.00
2018-07-17T14:46:19.854Z,4480.00
2018-07-17T14:48:13.269Z,4528.00
2018-07-17T14:49:13.256Z,4144.00
2018-07-17T14:51:06.180Z,4216.00
2018-07-17T14:52:06.140Z,4332.00
2018-07-17T14:53:59.764Z,4848.00
2018-07-17T14:54:59.542Z,5484.00
2018-07-17T14:56:53.188Z,6376.00
2018-07-17T14:57:52.946Z,6080.00
2018-07-17T14:59:46.332Z,5012.00
2018-07-17T15:00:46.307Z,4184.00
2018-07-17T15:02:39.831Z,3116.00
2018-07-17T15:03:39.701Z,3108.00
2018-07-17T15:05:32.635Z,3124.00
2018-07-17T15:06:32.610Z,3036.00
2018-07-17T15:08:25.999Z,2800.00
2018-07-17T15:09:25.982Z,2988.00
2018-07-17T15:11:19.514Z,3084.00
2018-07-17T15:12:19.380Z,3064.00
2018-07-17T15:14:12.786Z,3400.00
2018-07-17T15:15:12.779Z,3852.00
2018-07-17T15:17:05.936Z,4344.00
2018-07-17T15:18:05.736Z,4112.00
2018-07-17T15:19:59.086Z,3968.00
2018-07-17T15:20:59.076Z,4020.00
2018-07-17T15:22:52.053Z,3848.00
2018-07-17T15:23:51.990Z,3824.00
2018-07-17T15:25:44.899Z,3600.00
2018-07-17T15:26:44.909Z,3552.00
2018-07-17T15:28:38.300Z,3548.00
2018-07-17T15:29:38.270Z,3628.00
2018-07-17T15:31:31.363Z,4296.00
2018-07-17T15:32:31.193Z,4572.00
2018-07-17T15:34:25.566Z,4448.00
2018-07-17T15:35:25.568Z,4212.00
2018-07-17T15:37:18.969Z,4032.00
2018-07-17T15:38:19.005Z,4356.00
2018-07-17T15:40:12.074Z,4552.00
2018-07-17T15:41:11.877Z,4684.00
2018-07-17T15:43:04.756Z,4596.00
2018-07-17T15:44:04.757Z,4440.00
2018-07-17T15:45:57.663Z,4964.00
2018-07-17T15:46:57.658Z,4820.00
2018-07-17T15:48:51.117Z,3868.00
2018-07-17T15:49:51.033Z,3860.00
2018-07-17T15:51:45.447Z,4540.00
2018-07-17T15:52:45.437Z,4512.00
2018-07-17T15:54:39.019Z,3424.00
2018-07-17T15:55:38.825Z,3284.00
2018-07-17T15:57:32.224Z,3412.00
2018-07-17T15:58:32.415Z,3500.00
2018-07-17T16:00:25.759Z,3256.00
2018-07-17T16:01:25.625Z,3228.00
2018-07-17T16:03:19.028Z,3052.00
2018-07-17T16:04:18.980Z,3144.00
2018-07-17T16:06:12.457Z,3464.00
2018-07-17T16:07:12.390Z,3352.00
2018-07-17T16:09:05.576Z,3180.00
2018-07-17T16:10:05.620Z,3000.00
2018-07-17T16:11:59.504Z,3544.00
2018-07-17T16:12:59.096Z,4024.00
2018-07-17T16:14:52.384Z,4228.00
2018-07-17T16:17:05.456Z,2588.00
2018-07-17T16:18:05.207Z,2700.00
2018-07-17T16:19:59.618Z,2336.00
2018-07-17T16:20:59.614Z,1908.00
2018-07-17T16:22:53.001Z,1840.00
2018-07-17T16:23:52.991Z,1788.00
2018-07-17T16:25:45.908Z,1528.00
2018-07-17T16:26:45.880Z,1340.00
2018-07-17T16:28:38.810Z,824.00
2018-07-17T16:29:38.776Z,564.00
2018-07-17T16:31:32.211Z,296.00
2018-07-17T16:32:32.210Z,236.00
2018-07-17T16:34:29.109Z,172.00
2018-07-17T16:35:28.114Z,144.00
2018-07-17T16:37:21.523Z,116.00
2018-07-17T16:38:21.504Z,108.00
2018-07-17T16:40:14.409Z,124.00
2018-07-17T16:41:14.407Z,156.00
2018-07-17T16:43:08.604Z,236.00
2018-07-17T16:44:07.313Z,252.00
2018-07-17T16:46:06.502Z,240.00
2018-07-17T16:47:01.392Z,212.00
2018-07-17T16:48:54.321Z,164.00
2018-07-17T16:49:54.304Z,168.00
2018-07-17T16:51:47.690Z,188.00
2018-07-17T16:52:47.690Z,192.00
2018-07-17T16:54:41.113Z,196.00
2018-07-17T16:55:41.081Z,208.00
2018-07-17T16:57:37.423Z,228.00
2018-07-17T16:58:33.986Z,244.00
2018-07-17T17:00:28.019Z,240.00
2018-07-17T17:01:28.008Z,236.00
2018-07-17T17:03:20.974Z,236.00
2018-07-17T17:04:20.897Z,236.00
2018-07-17T17:06:14.024Z,240.00
2018-07-17T17:07:13.804Z,244.00
2018-07-17T17:09:06.749Z,244.00
2018-07-17T17:11:47.401Z,240.00
2018-07-17T17:12:47.121Z,252.00
2018-07-17T17:14:40.785Z,260.00
2018-07-17T17:15:41.070Z,268.00
2018-07-17T17:19:14.350Z,264.00
2018-07-17T17:20:14.444Z,284.00
2018-07-17T17:22:11.379Z,292.00
2018-07-17T17:23:10.439Z,292.00
2018-07-17T17:28:19.728Z,352.00
2018-07-17T17:29:19.683Z,368.00
2018-07-17T17:31:13.072Z,412.00
2018-07-17T17:32:13.056Z,436.00
2018-07-17T17:34:06.374Z,500.00
2018-07-17T17:35:06.051Z,524.00
2018-07-17T17:37:00.454Z,620.00
2018-07-17T17:37:59.838Z,684.00
2018-07-17T17:39:53.227Z,784.00
2018-07-17T17:40:53.258Z,844.00
2018-07-17T17:42:48.202Z,996.00
2018-07-17T17:43:46.430Z,1072.00
2018-07-17T17:45:40.017Z,1164.00
2018-07-17T17:46:39.675Z,1236.00
2018-07-17T17:48:33.141Z,1364.00
2018-07-17T17:49:33.587Z,1460.00
2018-07-17T17:51:27.525Z,1636.00
2018-07-17T17:52:27.134Z,1736.00
2018-07-17T17:54:20.286Z,1912.00
2018-07-17T17:55:20.044Z,1928.00
2018-07-17T17:57:13.386Z,1900.00
2018-07-17T17:58:12.998Z,1864.00
2018-07-17T18:00:07.458Z,1748.00
2018-07-17T18:01:06.776Z,1672.00
2018-07-17T18:03:01.687Z,1556.00
2018-07-17T18:03:59.714Z,1484.00
2018-07-17T18:05:54.675Z,1344.00
2018-07-17T18:06:55.028Z,1284.00
2018-07-17T18:08:47.456Z,1188.00
2018-07-17T18:09:47.423Z,1144.00
2018-07-17T18:11:41.398Z,1068.00
2018-07-17T18:12:41.097Z,1028.00
2018-07-17T18:14:37.027Z,968.00
2018-07-17T18:15:36.403Z,932.00
2018-07-17T18:17:28.209Z,868.00
2018-07-17T18:18:27.612Z,844.00
2018-07-17T18:20:22.182Z,852.00
2018-07-17T18:21:21.682Z,872.00
2018-07-17T18:23:16.371Z,884.00
2018-07-17T18:24:16.987Z,884.00
2018-07-17T18:26:10.399Z,900.00
2018-07-17T18:27:09.852Z,896.00
2018-07-17T18:29:03.279Z,876.00
2018-07-17T18:30:03.802Z,868.00
2018-07-17T18:31:56.599Z,868.00
2018-07-17T18:32:56.551Z,876.00
2018-07-17T18:34:50.004Z,924.00
2018-07-17T18:35:49.979Z,960.00
2018-07-17T18:37:43.487Z,1052.00
2018-07-17T18:38:43.131Z,1104.00
2018-07-17T18:40:36.636Z,1116.00
2018-07-17T18:41:36.203Z,1096.00
2018-07-17T18:43:29.904Z,1040.00
2018-07-17T18:44:29.895Z,1028.00
2018-07-17T18:46:23.346Z,1024.00
2018-07-17T18:47:23.737Z,1004.00
2018-07-17T18:49:16.813Z,932.00
2018-07-17T18:50:16.695Z,892.00
2018-07-17T18:52:10.130Z,844.00
2018-07-17T18:53:10.381Z,800.00
2018-07-17T18:55:07.635Z,728.00
2018-07-17T18:56:03.125Z,708.00
2018-07-17T18:58:02.438Z,684.00
2018-07-17T19:00:12.475Z,672.00
2018-07-17T19:01:11.570Z,648.00
2018-07-17T19:03:08.695Z,576.00
2018-07-17T19:04:07.666Z,564.00
2018-07-17T19:06:01.637Z,528.00
2018-07-17T19:07:00.182Z,492.00
2018-07-17T19:08:53.457Z,432.00
2018-07-17T19:09:54.896Z,408.00
2018-07-17T19:11:49.387Z,384.00
2018-07-17T19:12:47.765Z,364.00
2018-07-17T19:14:41.477Z,332.00
2018-07-17T19:15:40.821Z,320.00
2018-07-17T19:17:35.636Z,304.00
2018-07-17T19:18:34.256Z,296.00
2018-07-17T19:20:27.464Z,268.00
2018-07-17T19:21:27.126Z,256.00
2018-07-17T19:23:22.331Z,232.00
2018-07-17T19:24:21.484Z,220.00
2018-07-17T19:26:15.561Z,196.00
2018-07-17T19:27:15.189Z,184.00
2018-07-17T19:29:19.195Z,160.00
2018-07-17T19:30:08.775Z,148.00
2018-07-17T19:32:03.694Z,128.00
2018-07-17T19:33:01.102Z,120.00
2018-07-17T19:34:54.825Z,100.00
2018-07-17T19:35:54.920Z,92.00
2018-07-17T19:37:52.245Z,80.00
2018-07-17T19:38:50.473Z,72.00
2018-07-17T19:40:44.213Z,60.00
2018-07-17T19:41:44.170Z,56.00
2018-07-17T19:43:37.541Z,48.00
2018-07-17T19:44:37.512Z,40.00
2018-07-17T19:46:39.530Z,36.00
2018-07-17T19:47:31.937Z,32.00
2018-07-17T19:49:25.412Z,24.00
2018-07-17T19:50:25.305Z,24.00
2018-07-17T19:52:18.784Z,20.00
2018-07-17T19:53:18.749Z,16.00
2018-07-17T19:55:12.011Z,12.00
2018-07-17T19:56:12.116Z,12.00
2018-07-17T19:58:05.484Z,12.00
2018-07-17T19:59:05.453Z,8.00
2018-07-17T20:01:02.359Z,8.00
2018-07-17T20:02:00.421Z,4.00
2018-07-17T20:03:53.281Z,4.00
2018-07-17T20:04:52.987Z,4.00
2018-07-17T20:06:46.440Z,4.00
2018-07-17T20:07:46.386Z,4.00
2018-07-17T20:09:45.982Z,4.00
2018-07-17T20:10:38.927Z,4.00
2018-07-17T20:12:32.137Z,0.00
2018-07-17T20:13:34.375Z,0.00
2018-07-17T20:15:25.494Z,0.00
2018-07-17T20:16:25.145Z,0.00
2018-07-17T20:18:18.907Z,0.00
2018-07-17T20:19:19.441Z,0.00
2018-07-17T20:21:12.370Z,0.00
2018-07-17T20:22:12.060Z,0.00
2018-07-17T20:24:13.329Z,0.00
2018-07-17T20:25:08.223Z,0.00
2018-07-17T20:27:02.561Z,0.00
2018-07-17T20:28:03.101Z,0.00
2018-07-17T20:29:55.852Z,0.00
2018-07-17T20:30:55.604Z,0.00
2018-07-17T20:32:48.610Z,0.00
2018-07-17T20:35:01.925Z,0.00
2018-07-17T20:36:03.938Z,0.00
2018-07-17T20:37:59.564Z,0.00
2018-07-17T20:39:00.110Z,0.00
2018-07-17T20:40:52.600Z,0.00
2018-07-17T20:41:52.571Z,0.00
2018-07-17T20:43:46.510Z,0.00
2018-07-17T20:44:45.883Z,0.00
2018-07-17T20:46:39.308Z,0.00
2018-07-17T20:47:39.278Z,0.00
2018-07-17T20:49:33.853Z,0.00
2018-07-17T20:50:33.842Z,0.00
2018-07-17T20:52:27.085Z,0.00
2018-07-17T20:53:29.208Z,0.00
2018-07-17T20:55:20.434Z,0.00
2018-07-17T20:56:20.619Z,0.00
2018-07-17T20:58:13.809Z,0.00
2018-07-17T20:59:14.314Z,0.00
2018-07-17T21:01:07.238Z,0.00
2018-07-17T21:02:07.119Z,0.00
2018-07-17T21:04:00.618Z,0.00
2018-07-17T21:05:00.571Z,0.00
2018-07-17T21:06:59.144Z,0.00
2018-07-17T21:07:54.622Z,0.00
2018-07-17T21:09:51.006Z,0.00
2018-07-17T21:10:50.549Z,0.00
2018-07-17T21:12:44.900Z,0.00
2018-07-17T21:13:43.884Z,0.00
2018-07-17T21:15:37.917Z,0.00
2018-07-17T21:16:37.248Z,0.00
2018-07-17T21:18:59.609Z,0.00
2018-07-17T21:20:25.093Z,0.00
2018-07-17T21:21:25.063Z,0.00
2018-07-17T21:23:18.382Z,0.00
2018-07-17T21:24:18.926Z,0.00
2018-07-17T21:26:11.889Z,0.00
2018-07-17T21:27:11.851Z,0.00
2018-07-17T21:29:05.925Z,0.00
2018-07-17T21:30:05.075Z,0.00
2018-07-17T21:31:58.550Z,0.00
2018-07-17T21:32:59.073Z,0.00
2018-07-17T21:34:51.406Z,0.00
2018-07-17T21:35:52.109Z,0.00
2018-07-17T21:37:44.343Z,0.00
2018-07-17T21:38:44.005Z,0.00
2018-07-17T21:40:37.941Z,0.00
2018-07-17T21:41:37.357Z,0.00
2018-07-17T21:43:31.038Z,0.00
2018-07-17T21:44:30.734Z,0.00
2018-07-17T21:46:24.198Z,0.00
2018-07-17T21:47:24.110Z,0.00
2018-07-17T21:49:17.793Z,0.00
2018-07-17T21:50:17.519Z,0.00
2018-07-17T21:52:11.298Z,0.00
2018-07-17T21:53:11.828Z,0.00
2018-07-17T21:55:05.191Z,0.00
2018-07-17T21:56:04.719Z,0.00
2018-07-17T21:57:58.612Z,0.00
2018-07-17T21:58:57.774Z,0.00
2018-07-17T22:00:51.405Z,0.00
2018-07-17T22:01:51.514Z,0.00
2018-07-17T22:03:45.533Z,0.00
2018-07-17T22:04:45.274Z,0.00
2018-07-17T22:06:38.331Z,0.00
2018-07-17T22:07:38.146Z,0.00
2018-07-17T22:09:31.637Z,0.00
2018-07-17T22:10:31.280Z,0.00
2018-07-17T22:12:24.944Z,0.00
2018-07-17T22:13:24.993Z,0.00
2018-07-17T22:15:18.553Z,0.00
2018-07-17T22:16:18.301Z,0.00
2018-07-17T22:18:11.740Z,0.00
2018-07-17T22:19:11.720Z,0.00
2018-07-17T22:21:04.738Z,0.00
2018-07-17T22:22:04.318Z,0.00
2018-07-17T22:23:58.074Z,0.00
2018-07-17T22:24:58.077Z,0.00
2018-07-17T22:26:51.438Z,0.00
2018-07-17T22:27:51.430Z,0.00
2018-07-17T22:29:44.817Z,0.00
2018-07-17T22:30:44.399Z,0.00
2018-07-17T22:32:38.109Z,0.00
2018-07-17T22:33:38.140Z,0.00
2018-07-17T22:35:33.534Z,0.00
2018-07-17T22:36:32.500Z,0.00
2018-07-17T22:38:25.950Z,0.00
2018-07-17T22:39:25.553Z,0.00
2018-07-17T22:41:19.237Z,0.00
2018-07-17T22:42:19.248Z,0.00
2018-07-17T22:44:12.737Z,0.00
2018-07-17T22:45:12.605Z,0.00
2018-07-17T22:47:05.501Z,0.00
2018-07-17T22:48:05.143Z,0.00
2018-07-17T22:49:58.645Z,0.00
2018-07-17T22:50:58.664Z,0.00
2018-07-17T22:52:52.584Z,0.00
2018-07-17T22:53:52.262Z,0.00
2018-07-17T22:55:45.145Z,0.00
2018-07-17T22:56:45.419Z,0.00
2018-07-17T22:58:38.787Z,0.00
2018-07-17T22:59:38.527Z,0.00
2018-07-17T23:01:35.014Z,0.00
2018-07-17T23:02:32.189Z,0.00
2018-07-17T23:04:29.581Z,0.00
2018-07-17T23:05:29.792Z,0.00
2018-07-17T23:07:23.259Z,0.00
2018-07-17T23:08:23.186Z,0.00
2018-07-17T23:10:16.507Z,0.00
2018-07-17T23:11:16.548Z,0.00
2018-07-17T23:13:09.973Z,0.00
2018-07-17T23:14:09.898Z,0.00
2018-07-17T23:16:05.807Z,0.00
2018-07-17T23:17:05.675Z,0.00
2018-07-17T23:19:00.096Z,0.00
2018-07-17T23:20:00.166Z,0.00
2018-07-17T23:21:53.639Z,0.00
2018-07-17T23:22:53.486Z,0.00
2018-07-17T23:24:46.426Z,0.00
2018-07-17T23:25:46.086Z,0.00
2018-07-17T23:27:39.377Z,0.00
2018-07-17T23:28:39.018Z,0.00
2018-07-17T23:30:33.133Z,0.00
2018-07-17T23:31:32.798Z,0.00
2018-07-17T23:33:26.867Z,0.00
2018-07-17T23:34:25.773Z,0.00
2018-07-17T23:36:19.040Z,0.00
2018-07-17T23:37:18.704Z,0.00
2018-07-17T23:39:11.579Z,0.00
2018-07-17T23:40:11.502Z,0.00
2018-07-17T23:42:05.311Z,0.00
2018-07-17T23:43:05.841Z,0.00
2018-07-17T23:44:58.730Z,0.00
2018-07-17T23:45:58.237Z,0.00
2018-07-17T23:47:52.072Z,0.00
2018-07-17T23:48:52.228Z,0.00
2018-07-17T23:50:44.951Z,0.00
2018-07-17T23:51:44.884Z,0.00
2018-07-17T23:53:39.451Z,0.00
2018-07-17T23:54:37.893Z,0.00
2018-07-17T23:56:32.350Z,0.00
2018-07-17T23:57:31.248Z,0.00
2018-07-17T23:59:25.578Z,0.00
